sensor_id;sensor_type;location;lat;lon;timestamp;P1;durP1;ratioP1;P2;durP2;ratioP2
38262;SDS011;24054;50.128;19.730;2023-04-03T00:00:10;2.53;;;1.60;;
38262;SDS011;24054;50.128;19.730;2023-04-03T00:02:38;3.63;;;1.70;;
38262;SDS011;24054;50.128;19.730;2023-04-03T00:05:06;2.83;;;2.00;;
38262;SDS011;24054;50.128;19.730;2023-04-03T00:07:33;3.03;;;2.00;;
38262;SDS011;24054;50.128;19.730;2023-04-03T00:10:02;3.55;;;1.95;;
38262;SDS011;24054;50.128;19.730;2023-04-03T00:12:29;3.15;;;1.90;;
38262;SDS011;24054;50.128;19.730;2023-04-03T00:14:56;2.08;;;1.65;;
38262;SDS011;24054;50.128;19.730;2023-04-03T00:17:23;2.03;;;1.55;;
38262;SDS011;24054;50.128;19.730;2023-04-03T00:19:50;3.72;;;1.77;;
38262;SDS011;24054;50.128;19.730;2023-04-03T00:22:17;3.33;;;1.95;;
38262;SDS011;24054;50.128;19.730;2023-04-03T00:24:44;2.67;;;1.95;;
38262;SDS011;24054;50.128;19.730;2023-04-03T00:27:12;4.55;;;2.08;;
38262;SDS011;24054;50.128;19.730;2023-04-03T00:29:40;3.17;;;1.80;;
38262;SDS011;24054;50.128;19.730;2023-04-03T00:32:07;3.05;;;1.90;;
38262;SDS011;24054;50.128;19.730;2023-04-03T00:34:35;3.17;;;1.80;;
38262;SDS011;24054;50.128;19.730;2023-04-03T00:37:02;2.95;;;1.67;;
38262;SDS011;24054;50.128;19.730;2023-04-03T00:39:28;2.30;;;1.80;;
38262;SDS011;24054;50.128;19.730;2023-04-03T00:41:56;4.30;;;1.75;;
38262;SDS011;24054;50.128;19.730;2023-04-03T00:47:27;3.03;;;1.70;;
38262;SDS011;24054;50.128;19.730;2023-04-03T00:49:54;1.67;;;1.48;;
38262;SDS011;24054;50.128;19.730;2023-04-03T00:52:22;2.58;;;1.55;;
38262;SDS011;24054;50.128;19.730;2023-04-03T00:54:53;4.53;;;1.85;;
38262;SDS011;24054;50.128;19.730;2023-04-03T00:57:23;2.83;;;1.80;;
38262;SDS011;24054;50.128;19.730;2023-04-03T00:59:52;3.05;;;1.67;;
38262;SDS011;24054;50.128;19.730;2023-04-03T01:02:23;2.58;;;1.60;;
38262;SDS011;24054;50.128;19.730;2023-04-03T01:04:52;3.72;;;1.80;;
38262;SDS011;24054;50.128;19.730;2023-04-03T01:07:21;2.30;;;1.70;;
38262;SDS011;24054;50.128;19.730;2023-04-03T01:09:51;2.75;;;1.60;;
38262;SDS011;24054;50.128;19.730;2023-04-03T01:12:22;2.17;;;1.60;;
38262;SDS011;24054;50.128;19.730;2023-04-03T01:14:51;3.15;;;1.75;;
38262;SDS011;24054;50.128;19.730;2023-04-03T01:17:27;2.83;;;1.65;;
38262;SDS011;24054;50.128;19.730;2023-04-03T01:20:08;3.55;;;1.63;;
38262;SDS011;24054;50.128;19.730;2023-04-03T01:22:56;2.08;;;1.48;;
38262;SDS011;24054;50.128;19.730;2023-04-03T01:25:32;2.08;;;1.60;;
38262;SDS011;24054;50.128;19.730;2023-04-03T01:30:30;2.65;;;1.90;;
38262;SDS011;24054;50.128;19.730;2023-04-03T01:33:00;3.22;;;1.80;;
38262;SDS011;24054;50.128;19.730;2023-04-03T01:35:27;2.10;;;1.80;;
38262;SDS011;24054;50.128;19.730;2023-04-03T01:37:54;1.90;;;1.30;;
38262;SDS011;24054;50.128;19.730;2023-04-03T01:40:21;2.38;;;1.70;;
38262;SDS011;24054;50.128;19.730;2023-04-03T01:42:48;1.60;;;1.30;;
38262;SDS011;24054;50.128;19.730;2023-04-03T01:45:15;2.25;;;1.48;;
38262;SDS011;24054;50.128;19.730;2023-04-03T01:47:42;2.50;;;1.40;;
38262;SDS011;24054;50.128;19.730;2023-04-03T01:50:11;2.70;;;1.67;;
38262;SDS011;24054;50.128;19.730;2023-04-03T01:52:38;2.30;;;1.80;;
38262;SDS011;24054;50.128;19.730;2023-04-03T01:55:05;2.47;;;1.27;;
38262;SDS011;24054;50.128;19.730;2023-04-03T01:57:32;2.03;;;1.48;;
38262;SDS011;24054;50.128;19.730;2023-04-03T01:59:59;2.20;;;1.35;;
38262;SDS011;24054;50.128;19.730;2023-04-03T02:02:26;1.77;;;1.40;;
38262;SDS011;24054;50.128;19.730;2023-04-03T02:04:53;2.55;;;1.30;;
38262;SDS011;24054;50.128;19.730;2023-04-03T02:07:22;2.13;;;1.65;;
38262;SDS011;24054;50.128;19.730;2023-04-03T02:09:49;2.13;;;1.40;;
38262;SDS011;24054;50.128;19.730;2023-04-03T02:12:16;1.60;;;1.30;;
38262;SDS011;24054;50.128;19.730;2023-04-03T02:14:43;1.98;;;1.50;;
38262;SDS011;24054;50.128;19.730;2023-04-03T02:17:10;1.90;;;1.45;;
38262;SDS011;24054;50.128;19.730;2023-04-03T02:19:37;1.88;;;1.30;;
38262;SDS011;24054;50.128;19.730;2023-04-03T02:22:04;1.63;;;1.25;;
38262;SDS011;24054;50.128;19.730;2023-04-03T02:24:33;2.20;;;1.33;;
38262;SDS011;24054;50.128;19.730;2023-04-03T02:27:00;2.25;;;1.50;;
38262;SDS011;24054;50.128;19.730;2023-04-03T02:29:27;2.78;;;1.80;;
38262;SDS011;24054;50.128;19.730;2023-04-03T02:31:54;1.63;;;1.23;;
38262;SDS011;24054;50.128;19.730;2023-04-03T02:34:21;2.00;;;1.60;;
38262;SDS011;24054;50.128;19.730;2023-04-03T02:36:48;2.80;;;1.58;;
38262;SDS011;24054;50.128;19.730;2023-04-03T02:39:15;1.50;;;1.30;;
38262;SDS011;24054;50.128;19.730;2023-04-03T02:41:44;1.85;;;1.40;;
38262;SDS011;24054;50.128;19.730;2023-04-03T02:44:11;1.95;;;1.27;;
38262;SDS011;24054;50.128;19.730;2023-04-03T02:46:38;1.10;;;1.00;;
38262;SDS011;24054;50.128;19.730;2023-04-03T02:49:08;1.83;;;1.30;;
38262;SDS011;24054;50.128;19.730;2023-04-03T02:51:35;2.00;;;1.40;;
38262;SDS011;24054;50.128;19.730;2023-04-03T02:54:02;1.67;;;1.20;;
38262;SDS011;24054;50.128;19.730;2023-04-03T02:56:29;2.45;;;1.40;;
38262;SDS011;24054;50.128;19.730;2023-04-03T02:58:57;2.83;;;1.40;;
38262;SDS011;24054;50.128;19.730;2023-04-03T03:01:24;1.30;;;1.10;;
38262;SDS011;24054;50.128;19.730;2023-04-03T03:03:53;1.92;;;1.30;;
38262;SDS011;24054;50.128;19.730;2023-04-03T03:06:20;2.08;;;1.30;;
38262;SDS011;24054;50.128;19.730;2023-04-03T03:08:47;1.48;;;1.00;;
38262;SDS011;24054;50.128;19.730;2023-04-03T03:11:14;1.50;;;1.05;;
38262;SDS011;24054;50.128;19.730;2023-04-03T03:13:41;1.80;;;1.35;;
38262;SDS011;24054;50.128;19.730;2023-04-03T03:16:10;1.33;;;1.10;;
38262;SDS011;24054;50.128;19.730;2023-04-03T03:18:37;1.25;;;1.05;;
38262;SDS011;24054;50.128;19.730;2023-04-03T03:21:04;2.15;;;1.30;;
38262;SDS011;24054;50.128;19.730;2023-04-03T03:23:31;1.58;;;1.35;;
38262;SDS011;24054;50.128;19.730;2023-04-03T03:25:59;2.55;;;1.15;;
38262;SDS011;24054;50.128;19.730;2023-04-03T03:28:27;1.17;;;1.08;;
38262;SDS011;24054;50.128;19.730;2023-04-03T03:30:55;1.90;;;1.40;;
38262;SDS011;24054;50.128;19.730;2023-04-03T03:33:24;1.50;;;1.17;;
38262;SDS011;24054;50.128;19.730;2023-04-03T03:35:51;2.30;;;1.33;;
38262;SDS011;24054;50.128;19.730;2023-04-03T03:38:19;1.30;;;1.20;;
38262;SDS011;24054;50.128;19.730;2023-04-03T03:40:46;2.25;;;1.38;;
38262;SDS011;24054;50.128;19.730;2023-04-03T03:43:14;2.47;;;1.30;;
38262;SDS011;24054;50.128;19.730;2023-04-03T03:45:41;1.35;;;1.10;;
38262;SDS011;24054;50.128;19.730;2023-04-03T03:48:08;1.23;;;1.13;;
38262;SDS011;24054;50.128;19.730;2023-04-03T03:50:37;1.70;;;1.20;;
38262;SDS011;24054;50.128;19.730;2023-04-03T03:53:04;1.25;;;1.00;;
38262;SDS011;24054;50.128;19.730;2023-04-03T03:55:31;1.50;;;1.10;;
38262;SDS011;24054;50.128;19.730;2023-04-03T03:57:58;1.60;;;1.30;;
38262;SDS011;24054;50.128;19.730;2023-04-03T04:00:26;1.52;;;0.90;;
38262;SDS011;24054;50.128;19.730;2023-04-03T04:02:53;1.30;;;1.20;;
38262;SDS011;24054;50.128;19.730;2023-04-03T04:05:20;1.75;;;1.10;;
38262;SDS011;24054;50.128;19.730;2023-04-03T04:07:49;1.65;;;1.10;;
38262;SDS011;24054;50.128;19.730;2023-04-03T04:10:16;1.38;;;1.08;;
38262;SDS011;24054;50.128;19.730;2023-04-03T04:12:43;1.45;;;1.30;;
38262;SDS011;24054;50.128;19.730;2023-04-03T04:15:10;1.65;;;1.15;;
38262;SDS011;24054;50.128;19.730;2023-04-03T04:17:37;1.65;;;1.10;;
38262;SDS011;24054;50.128;19.730;2023-04-03T04:20:04;1.60;;;1.10;;
38262;SDS011;24054;50.128;19.730;2023-04-03T04:22:32;1.35;;;1.20;;
38262;SDS011;24054;50.128;19.730;2023-04-03T04:25:00;1.98;;;1.58;;
38262;SDS011;24054;50.128;19.730;2023-04-03T04:27:27;1.33;;;0.93;;
38262;SDS011;24054;50.128;19.730;2023-04-03T04:29:54;1.75;;;1.30;;
38262;SDS011;24054;50.128;19.730;2023-04-03T04:32:21;1.40;;;1.05;;
38262;SDS011;24054;50.128;19.730;2023-04-03T04:34:48;1.40;;;1.00;;
38262;SDS011;24054;50.128;19.730;2023-04-03T04:37:15;1.65;;;1.10;;
38262;SDS011;24054;50.128;19.730;2023-04-03T04:39:42;2.08;;;1.20;;
38262;SDS011;24054;50.128;19.730;2023-04-03T04:42:10;3.00;;;1.17;;
38262;SDS011;24054;50.128;19.730;2023-04-03T04:44:37;1.20;;;1.10;;
38262;SDS011;24054;50.128;19.730;2023-04-03T04:47:05;1.52;;;1.10;;
38262;SDS011;24054;50.128;19.730;2023-04-03T04:49:32;1.90;;;1.10;;
38262;SDS011;24054;50.128;19.730;2023-04-03T04:51:59;1.15;;;0.90;;
38262;SDS011;24054;50.128;19.730;2023-04-03T04:54:26;1.20;;;1.10;;
38262;SDS011;24054;50.128;19.730;2023-04-03T04:56:53;2.03;;;1.25;;
38262;SDS011;24054;50.128;19.730;2023-04-03T04:59:22;1.50;;;1.10;;
38262;SDS011;24054;50.128;19.730;2023-04-03T05:01:49;1.55;;;1.00;;
38262;SDS011;24054;50.128;19.730;2023-04-03T05:04:16;1.33;;;1.00;;
38262;SDS011;24054;50.128;19.730;2023-04-03T05:06:47;1.52;;;0.90;;
38262;SDS011;24054;50.128;19.730;2023-04-03T05:09:14;1.10;;;1.00;;
38262;SDS011;24054;50.128;19.730;2023-04-03T05:11:42;1.30;;;1.20;;
38262;SDS011;24054;50.128;19.730;2023-04-03T05:14:09;1.30;;;1.17;;
38262;SDS011;24054;50.128;19.730;2023-04-03T05:16:37;1.00;;;0.90;;
38262;SDS011;24054;50.128;19.730;2023-04-03T05:19:05;1.15;;;1.00;;
38262;SDS011;24054;50.128;19.730;2023-04-03T05:21:32;1.00;;;0.90;;
38262;SDS011;24054;50.128;19.730;2023-04-03T05:23:59;1.45;;;1.10;;
38262;SDS011;24054;50.128;19.730;2023-04-03T05:26:27;1.20;;;0.95;;
38262;SDS011;24054;50.128;19.730;2023-04-03T05:28:55;1.20;;;1.10;;
38262;SDS011;24054;50.128;19.730;2023-04-03T05:31:22;1.67;;;0.95;;
38262;SDS011;24054;50.128;19.730;2023-04-03T05:33:50;2.17;;;1.02;;
38262;SDS011;24054;50.128;19.730;2023-04-03T05:36:17;3.45;;;1.20;;
38262;SDS011;24054;50.128;19.730;2023-04-03T05:38:44;1.35;;;0.90;;
38262;SDS011;24054;50.128;19.730;2023-04-03T05:41:12;3.15;;;1.50;;
38262;SDS011;24054;50.128;19.730;2023-04-03T05:43:39;3.85;;;1.63;;
38262;SDS011;24054;50.128;19.730;2023-04-03T05:46:08;5.03;;;1.90;;
38262;SDS011;24054;50.128;19.730;2023-04-03T05:48:37;5.07;;;2.85;;
38262;SDS011;24054;50.128;19.730;2023-04-03T05:51:09;9.98;;;3.67;;
38262;SDS011;24054;50.128;19.730;2023-04-03T05:53:41;6.72;;;3.40;;
38262;SDS011;24054;50.128;19.730;2023-04-03T05:56:10;9.23;;;3.88;;
38262;SDS011;24054;50.128;19.730;2023-04-03T05:58:37;11.07;;;4.28;;
38262;SDS011;24054;50.128;19.730;2023-04-03T06:01:04;9.60;;;3.83;;
38262;SDS011;24054;50.128;19.730;2023-04-03T06:03:31;13.80;;;4.10;;
38262;SDS011;24054;50.128;19.730;2023-04-03T06:05:58;10.55;;;4.38;;
38262;SDS011;24054;50.128;19.730;2023-04-03T06:08:30;10.82;;;4.18;;
38262;SDS011;24054;50.128;19.730;2023-04-03T06:10:57;8.27;;;3.83;;
38262;SDS011;24054;50.128;19.730;2023-04-03T06:13:24;11.60;;;4.65;;
38262;SDS011;24054;50.128;19.730;2023-04-03T06:15:51;10.43;;;4.05;;
38262;SDS011;24054;50.128;19.730;2023-04-03T06:18:22;9.85;;;3.70;;
38262;SDS011;24054;50.128;19.730;2023-04-03T06:20:49;12.20;;;4.35;;
38262;SDS011;24054;50.128;19.730;2023-04-03T06:23:16;9.52;;;4.07;;
38262;SDS011;24054;50.128;19.730;2023-04-03T06:25:45;10.75;;;4.50;;
38262;SDS011;24054;50.128;19.730;2023-04-03T06:28:12;9.65;;;3.97;;
38262;SDS011;24054;50.128;19.730;2023-04-03T06:30:39;8.50;;;3.70;;
38262;SDS011;24054;50.128;19.730;2023-04-03T06:33:06;9.85;;;4.22;;
38262;SDS011;24054;50.128;19.730;2023-04-03T06:35:33;10.43;;;4.00;;
38262;SDS011;24054;50.128;19.730;2023-04-03T06:38:00;8.50;;;3.47;;
38262;SDS011;24054;50.128;19.730;2023-04-03T06:40:29;8.10;;;4.10;;
38262;SDS011;24054;50.128;19.730;2023-04-03T06:42:57;11.63;;;4.20;;
38262;SDS011;24054;50.128;19.730;2023-04-03T06:45:27;8.35;;;3.60;;
38262;SDS011;24054;50.128;19.730;2023-04-03T06:47:54;10.05;;;3.40;;
38262;SDS011;24054;50.128;19.730;2023-04-03T06:50:21;6.72;;;3.10;;
38262;SDS011;24054;50.128;19.730;2023-04-03T06:52:49;9.38;;;3.95;;
38262;SDS011;24054;50.128;19.730;2023-04-03T06:55:16;7.40;;;3.83;;
38262;SDS011;24054;50.128;19.730;2023-04-03T06:57:43;7.28;;;3.42;;
38262;SDS011;24054;50.128;19.730;2023-04-03T07:00:12;7.72;;;2.90;;
38262;SDS011;24054;50.128;19.730;2023-04-03T07:02:41;8.98;;;3.63;;
38262;SDS011;24054;50.128;19.730;2023-04-03T07:05:08;6.95;;;2.85;;
38262;SDS011;24054;50.128;19.730;2023-04-03T07:07:35;5.53;;;3.20;;
38262;SDS011;24054;50.128;19.730;2023-04-03T07:10:03;8.07;;;2.65;;
38262;SDS011;24054;50.128;19.730;2023-04-03T07:12:31;7.07;;;3.10;;
38262;SDS011;24054;50.128;19.730;2023-04-03T07:15:01;7.65;;;2.88;;
38262;SDS011;24054;50.128;19.730;2023-04-03T07:17:32;7.03;;;3.10;;
38262;SDS011;24054;50.128;19.730;2023-04-03T07:20:28;9.88;;;3.60;;
38262;SDS011;24054;50.128;19.730;2023-04-03T07:22:56;5.57;;;3.13;;
38262;SDS011;24054;50.128;19.730;2023-04-03T07:25:23;5.88;;;2.83;;
38262;SDS011;24054;50.128;19.730;2023-04-03T07:27:51;4.85;;;2.53;;
38262;SDS011;24054;50.128;19.730;2023-04-03T07:30:19;7.60;;;2.70;;
38262;SDS011;24054;50.128;19.730;2023-04-03T07:32:47;7.30;;;2.58;;
38262;SDS011;24054;50.128;19.730;2023-04-03T07:35:14;6.35;;;2.72;;
38262;SDS011;24054;50.128;19.730;2023-04-03T07:37:42;4.57;;;2.17;;
38262;SDS011;24054;50.128;19.730;2023-04-03T07:40:09;5.78;;;2.30;;
38262;SDS011;24054;50.128;19.730;2023-04-03T07:42:36;5.38;;;2.35;;
38262;SDS011;24054;50.128;19.730;2023-04-03T07:45:04;6.15;;;2.05;;
38262;SDS011;24054;50.128;19.730;2023-04-03T07:47:31;4.20;;;2.73;;
38262;SDS011;24054;50.128;19.730;2023-04-03T07:50:00;3.92;;;1.90;;
38262;SDS011;24054;50.128;19.730;2023-04-03T07:52:27;5.40;;;2.63;;
38262;SDS011;24054;50.128;19.730;2023-04-03T07:54:54;7.97;;;2.92;;
38262;SDS011;24054;50.128;19.730;2023-04-03T07:57:21;4.65;;;2.30;;
38262;SDS011;24054;50.128;19.730;2023-04-03T07:59:48;6.85;;;2.30;;
38262;SDS011;24054;50.128;19.730;2023-04-03T08:02:15;5.03;;;2.03;;
38262;SDS011;24054;50.128;19.730;2023-04-03T08:04:42;3.67;;;2.03;;
38262;SDS011;24054;50.128;19.730;2023-04-03T08:07:10;5.55;;;2.30;;
38262;SDS011;24054;50.128;19.730;2023-04-03T08:09:37;4.30;;;1.90;;
38262;SDS011;24054;50.128;19.730;2023-04-03T08:12:05;5.70;;;2.00;;
38262;SDS011;24054;50.128;19.730;2023-04-03T08:14:32;6.50;;;2.67;;
38262;SDS011;24054;50.128;19.730;2023-04-03T08:17:00;3.38;;;1.85;;
38262;SDS011;24054;50.128;19.730;2023-04-03T08:21:56;6.47;;;2.42;;
38262;SDS011;24054;50.128;19.730;2023-04-03T08:24:29;6.97;;;2.20;;
38262;SDS011;24054;50.128;19.730;2023-04-03T08:26:56;4.88;;;2.10;;
38262;SDS011;24054;50.128;19.730;2023-04-03T08:31:52;4.00;;;1.85;;
38262;SDS011;24054;50.128;19.730;2023-04-03T08:34:22;5.65;;;1.88;;
38262;SDS011;24054;50.128;19.730;2023-04-03T08:36:49;4.45;;;1.60;;
38262;SDS011;24054;50.128;19.730;2023-04-03T08:39:17;4.40;;;2.30;;
38262;SDS011;24054;50.128;19.730;2023-04-03T08:41:45;6.80;;;2.15;;
38262;SDS011;24054;50.128;19.730;2023-04-03T08:44:14;4.82;;;1.95;;
38262;SDS011;24054;50.128;19.730;2023-04-03T08:46:52;3.58;;;1.85;;
38262;SDS011;24054;50.128;19.730;2023-04-03T08:49:39;4.72;;;1.77;;
38262;SDS011;24054;50.128;19.730;2023-04-03T08:52:12;4.55;;;1.73;;
38262;SDS011;24054;50.128;19.730;2023-04-03T08:54:41;3.72;;;1.63;;
38262;SDS011;24054;50.128;19.730;2023-04-03T08:57:23;3.83;;;1.60;;
38262;SDS011;24054;50.128;19.730;2023-04-03T08:59:57;8.55;;;1.58;;
38262;SDS011;24054;50.128;19.730;2023-04-03T09:02:30;6.07;;;1.80;;
38262;SDS011;24054;50.128;19.730;2023-04-03T09:05:01;4.40;;;1.60;;
38262;SDS011;24054;50.128;19.730;2023-04-03T09:07:33;4.75;;;1.48;;
38262;SDS011;24054;50.128;19.730;2023-04-03T09:10:05;5.13;;;1.70;;
38262;SDS011;24054;50.128;19.730;2023-04-03T09:12:36;2.47;;;1.30;;
38262;SDS011;24054;50.128;19.730;2023-04-03T09:15:08;4.05;;;1.70;;
38262;SDS011;24054;50.128;19.730;2023-04-03T09:17:45;4.10;;;1.60;;
38262;SDS011;24054;50.128;19.730;2023-04-03T09:20:22;3.78;;;1.65;;
38262;SDS011;24054;50.128;19.730;2023-04-03T09:22:53;3.75;;;1.75;;
38262;SDS011;24054;50.128;19.730;2023-04-03T09:25:21;3.70;;;1.40;;
38262;SDS011;24054;50.128;19.730;2023-04-03T09:27:51;4.50;;;1.77;;
38262;SDS011;24054;50.128;19.730;2023-04-03T09:30:19;5.13;;;1.88;;
38262;SDS011;24054;50.128;19.730;2023-04-03T09:32:49;6.30;;;1.80;;
38262;SDS011;24054;50.128;19.730;2023-04-03T09:35:21;6.20;;;1.42;;
38262;SDS011;24054;50.128;19.730;2023-04-03T09:37:51;6.88;;;1.98;;
38262;SDS011;24054;50.128;19.730;2023-04-03T09:40:33;3.33;;;2.00;;
38262;SDS011;24054;50.128;19.730;2023-04-03T09:45:48;4.10;;;1.70;;
38262;SDS011;24054;50.128;19.730;2023-04-03T09:48:18;1.90;;;1.23;;
38262;SDS011;24054;50.128;19.730;2023-04-03T09:50:55;8.18;;;1.77;;
38262;SDS011;24054;50.128;19.730;2023-04-03T09:53:31;5.15;;;2.03;;
38262;SDS011;24054;50.128;19.730;2023-04-03T09:56:01;2.85;;;1.35;;
38262;SDS011;24054;50.128;19.730;2023-04-03T09:58:32;5.07;;;1.60;;
38262;SDS011;24054;50.128;19.730;2023-04-03T10:01:04;5.00;;;1.52;;
38262;SDS011;24054;50.128;19.730;2023-04-03T10:03:32;3.00;;;1.55;;
38262;SDS011;24054;50.128;19.730;2023-04-03T10:06:00;2.75;;;1.30;;
38262;SDS011;24054;50.128;19.730;2023-04-03T10:08:30;3.88;;;1.58;;
38262;SDS011;24054;50.128;19.730;2023-04-03T10:11:08;3.63;;;1.77;;
38262;SDS011;24054;50.128;19.730;2023-04-03T10:13:53;5.03;;;1.40;;
38262;SDS011;24054;50.128;19.730;2023-04-03T10:16:24;2.08;;;1.33;;
38262;SDS011;24054;50.128;19.730;2023-04-03T10:21:57;3.28;;;1.38;;
38262;SDS011;24054;50.128;19.730;2023-04-03T10:24:31;4.07;;;1.48;;
38262;SDS011;24054;50.128;19.730;2023-04-03T10:27:05;2.80;;;1.23;;
38262;SDS011;24054;50.128;19.730;2023-04-03T10:29:42;3.13;;;1.40;;
38262;SDS011;24054;50.128;19.730;2023-04-03T10:32:26;2.92;;;1.27;;
38262;SDS011;24054;50.128;19.730;2023-04-03T10:35:10;2.55;;;1.17;;
38262;SDS011;24054;50.128;19.730;2023-04-03T10:37:47;2.85;;;1.33;;
38262;SDS011;24054;50.128;19.730;2023-04-03T10:40:23;2.28;;;1.38;;
38262;SDS011;24054;50.128;19.730;2023-04-03T10:42:59;2.60;;;1.33;;
38262;SDS011;24054;50.128;19.730;2023-04-03T10:45:37;2.47;;;1.20;;
38262;SDS011;24054;50.128;19.730;2023-04-03T10:48:20;2.17;;;1.10;;
38262;SDS011;24054;50.128;19.730;2023-04-03T10:51:01;3.72;;;1.40;;
38262;SDS011;24054;50.128;19.730;2023-04-03T10:53:39;3.25;;;1.33;;
38262;SDS011;24054;50.128;19.730;2023-04-03T10:56:18;2.50;;;1.10;;
38262;SDS011;24054;50.128;19.730;2023-04-03T10:58:53;1.40;;;1.20;;
38262;SDS011;24054;50.128;19.730;2023-04-03T11:01:26;2.63;;;1.42;;
38262;SDS011;24054;50.128;19.730;2023-04-03T11:03:58;3.30;;;1.30;;
38262;SDS011;24054;50.128;19.730;2023-04-03T11:06:28;1.95;;;1.10;;
38262;SDS011;24054;50.128;19.730;2023-04-03T11:09:02;6.20;;;1.52;;
38262;SDS011;24054;50.128;19.730;2023-04-03T11:11:34;4.75;;;1.40;;
38262;SDS011;24054;50.128;19.730;2023-04-03T11:14:04;2.97;;;1.20;;
38262;SDS011;24054;50.128;19.730;2023-04-03T11:16:43;1.80;;;1.05;;
38262;SDS011;24054;50.128;19.730;2023-04-03T11:19:15;2.63;;;1.20;;
38262;SDS011;24054;50.128;19.730;2023-04-03T11:21:50;10.73;;;1.17;;
38262;SDS011;24054;50.128;19.730;2023-04-03T11:24:22;2.47;;;1.17;;
38262;SDS011;24054;50.128;19.730;2023-04-03T11:26:51;2.33;;;1.40;;
38262;SDS011;24054;50.128;19.730;2023-04-03T11:29:21;2.05;;;1.13;;
38262;SDS011;24054;50.128;19.730;2023-04-03T11:31:59;2.72;;;1.10;;
38262;SDS011;24054;50.128;19.730;2023-04-03T11:34:33;3.10;;;1.10;;
38262;SDS011;24054;50.128;19.730;2023-04-03T11:37:05;3.92;;;1.27;;
38262;SDS011;24054;50.128;19.730;2023-04-03T11:39:40;3.92;;;1.38;;
38262;SDS011;24054;50.128;19.730;2023-04-03T11:42:24;2.65;;;1.17;;
38262;SDS011;24054;50.128;19.730;2023-04-03T11:47:52;1.63;;;0.80;;
38262;SDS011;24054;50.128;19.730;2023-04-03T11:53:30;3.45;;;1.17;;
38262;SDS011;24054;50.128;19.730;2023-04-03T11:56:04;2.35;;;1.30;;
38262;SDS011;24054;50.128;19.730;2023-04-03T11:59:14;2.10;;;1.08;;
38262;SDS011;24054;50.128;19.730;2023-04-03T12:01:47;3.00;;;0.90;;
38262;SDS011;24054;50.128;19.730;2023-04-03T12:04:17;3.00;;;1.15;;
38262;SDS011;24054;50.128;19.730;2023-04-03T12:06:50;5.00;;;1.30;;
38262;SDS011;24054;50.128;19.730;2023-04-03T12:12:28;2.60;;;0.93;;
38262;SDS011;24054;50.128;19.730;2023-04-03T12:15:11;1.65;;;1.00;;
38262;SDS011;24054;50.128;19.730;2023-04-03T12:17:47;1.88;;;1.10;;
38262;SDS011;24054;50.128;19.730;2023-04-03T12:23:32;3.38;;;1.33;;
38262;SDS011;24054;50.128;19.730;2023-04-03T12:26:18;1.65;;;0.80;;
38262;SDS011;24054;50.128;19.730;2023-04-03T12:28:51;1.75;;;0.95;;
38262;SDS011;24054;50.128;19.730;2023-04-03T12:31:21;1.92;;;0.85;;
38262;SDS011;24054;50.128;19.730;2023-04-03T12:33:58;1.88;;;1.02;;
38262;SDS011;24054;50.128;19.730;2023-04-03T12:36:37;1.60;;;1.20;;
38262;SDS011;24054;50.128;19.730;2023-04-03T12:39:29;1.20;;;0.98;;
38262;SDS011;24054;50.128;19.730;2023-04-03T12:42:18;2.25;;;1.02;;
38262;SDS011;24054;50.128;19.730;2023-04-03T12:44:58;2.15;;;0.95;;
38262;SDS011;24054;50.128;19.730;2023-04-03T12:47:31;2.10;;;1.08;;
38262;SDS011;24054;50.128;19.730;2023-04-03T12:50:03;2.08;;;1.10;;
38262;SDS011;24054;50.128;19.730;2023-04-03T12:52:44;1.75;;;1.15;;
38262;SDS011;24054;50.128;19.730;2023-04-03T12:55:16;1.30;;;0.77;;
38262;SDS011;24054;50.128;19.730;2023-04-03T12:57:45;4.15;;;1.00;;
38262;SDS011;24054;50.128;19.730;2023-04-03T13:00:21;1.85;;;1.08;;
38262;SDS011;24054;50.128;19.730;2023-04-03T13:02:55;3.60;;;1.20;;
38262;SDS011;24054;50.128;19.730;2023-04-03T13:05:23;3.38;;;0.82;;
38262;SDS011;24054;50.128;19.730;2023-04-03T13:07:52;2.88;;;1.10;;
38262;SDS011;24054;50.128;19.730;2023-04-03T13:10:25;1.90;;;1.05;;
38262;SDS011;24054;50.128;19.730;2023-04-03T13:12:53;1.80;;;0.95;;
38262;SDS011;24054;50.128;19.730;2023-04-03T13:15:22;1.88;;;1.08;;
38262;SDS011;24054;50.128;19.730;2023-04-03T13:17:51;5.78;;;1.23;;
38262;SDS011;24054;50.128;19.730;2023-04-03T13:20:21;2.50;;;1.02;;
38262;SDS011;24054;50.128;19.730;2023-04-03T13:22:52;2.17;;;1.02;;
38262;SDS011;24054;50.128;19.730;2023-04-03T13:25:23;2.20;;;1.23;;
38262;SDS011;24054;50.128;19.730;2023-04-03T13:27:53;5.00;;;1.45;;
38262;SDS011;24054;50.128;19.730;2023-04-03T13:30:23;3.78;;;1.05;;
38262;SDS011;24054;50.128;19.730;2023-04-03T13:32:53;2.90;;;1.15;;
38262;SDS011;24054;50.128;19.730;2023-04-03T13:35:35;4.88;;;1.10;;
38262;SDS011;24054;50.128;19.730;2023-04-03T13:38:07;5.05;;;1.05;;
38262;SDS011;24054;50.128;19.730;2023-04-03T13:40:51;2.72;;;1.20;;
38262;SDS011;24054;50.128;19.730;2023-04-03T13:43:21;1.80;;;1.13;;
38262;SDS011;24054;50.128;19.730;2023-04-03T13:45:55;1.63;;;1.00;;
38262;SDS011;24054;50.128;19.730;2023-04-03T13:48:34;3.65;;;1.10;;
38262;SDS011;24054;50.128;19.730;2023-04-03T13:51:03;3.33;;;1.30;;
38262;SDS011;24054;50.128;19.730;2023-04-03T13:53:33;2.75;;;1.02;;
38262;SDS011;24054;50.128;19.730;2023-04-03T13:56:09;2.70;;;1.20;;
38262;SDS011;24054;50.128;19.730;2023-04-03T13:58:52;2.03;;;0.95;;
38262;SDS011;24054;50.128;19.730;2023-04-03T14:01:32;12.95;;;1.13;;
38262;SDS011;24054;50.128;19.730;2023-04-03T14:04:09;2.42;;;1.10;;
38262;SDS011;24054;50.128;19.730;2023-04-03T14:06:38;3.28;;;1.10;;
38262;SDS011;24054;50.128;19.730;2023-04-03T14:09:06;2.08;;;0.98;;
38262;SDS011;24054;50.128;19.730;2023-04-03T14:11:34;2.50;;;1.10;;
38262;SDS011;24054;50.128;19.730;2023-04-03T14:14:02;1.63;;;0.98;;
38262;SDS011;24054;50.128;19.730;2023-04-03T14:16:37;1.33;;;0.80;;
38262;SDS011;24054;50.128;19.730;2023-04-03T14:19:06;4.80;;;1.02;;
38262;SDS011;24054;50.128;19.730;2023-04-03T14:21:41;1.73;;;0.90;;
38262;SDS011;24054;50.128;19.730;2023-04-03T14:24:08;2.35;;;1.23;;
38262;SDS011;24054;50.128;19.730;2023-04-03T14:26:38;1.83;;;1.00;;
38262;SDS011;24054;50.128;19.730;2023-04-03T14:29:06;2.40;;;1.05;;
38262;SDS011;24054;50.128;19.730;2023-04-03T14:31:33;1.88;;;0.90;;
38262;SDS011;24054;50.128;19.730;2023-04-03T14:34:00;2.30;;;1.10;;
38262;SDS011;24054;50.128;19.730;2023-04-03T14:36:28;2.28;;;1.08;;
38262;SDS011;24054;50.128;19.730;2023-04-03T14:38:56;1.93;;;0.90;;
38262;SDS011;24054;50.128;19.730;2023-04-03T14:41:27;2.55;;;0.80;;
38262;SDS011;24054;50.128;19.730;2023-04-03T14:43:56;0.90;;;0.90;;
38262;SDS011;24054;50.128;19.730;2023-04-03T14:46:24;2.42;;;1.30;;
38262;SDS011;24054;50.128;19.730;2023-04-03T14:48:54;1.80;;;0.95;;
38262;SDS011;24054;50.128;19.730;2023-04-03T14:51:21;1.77;;;1.02;;
38262;SDS011;24054;50.128;19.730;2023-04-03T14:53:49;1.83;;;0.95;;
38262;SDS011;24054;50.128;19.730;2023-04-03T14:56:17;1.50;;;1.00;;
38262;SDS011;24054;50.128;19.730;2023-04-03T14:58:48;1.52;;;0.80;;
38262;SDS011;24054;50.128;19.730;2023-04-03T15:01:19;0.90;;;0.73;;
38262;SDS011;24054;50.128;19.730;2023-04-03T15:03:48;1.30;;;0.90;;
38262;SDS011;24054;50.128;19.730;2023-04-03T15:06:16;3.13;;;1.00;;
38262;SDS011;24054;50.128;19.730;2023-04-03T15:08:43;2.45;;;1.00;;
38262;SDS011;24054;50.128;19.730;2023-04-03T15:11:12;1.83;;;0.82;;
38262;SDS011;24054;50.128;19.730;2023-04-03T15:13:39;2.65;;;1.00;;
38262;SDS011;24054;50.128;19.730;2023-04-03T15:16:11;1.42;;;0.90;;
38262;SDS011;24054;50.128;19.730;2023-04-03T15:18:43;2.17;;;0.90;;